createdAt,value
2017-12-27T00:02:18.351Z,8.25
2017-12-27T00:04:52.258Z,9.52
2017-12-27T00:20:54.443Z,10.30
2017-12-27T00:23:28.262Z,6.55
2017-12-27T00:26:02.037Z,7.20
2017-12-27T00:28:35.702Z,8.05
2017-12-27T00:44:27.058Z,8.65
2017-12-27T00:46:55.193Z,8.38
2017-12-27T00:49:23.404Z,9.40
2017-12-27T00:51:51.538Z,9.23
2017-12-27T00:54:20.045Z,9.60
2017-12-27T00:56:48.183Z,8.25
2017-12-27T00:59:16.297Z,7.25
2017-12-27T01:01:44.421Z,8.10
2017-12-27T01:04:12.549Z,7.95
2017-12-27T01:06:40.673Z,8.30
2017-12-27T01:09:08.794Z,9.27
2017-12-27T01:11:37.712Z,8.73
2017-12-27T01:14:05.829Z,7.95
2017-12-27T01:16:33.996Z,7.45
2017-12-27T01:19:02.125Z,7.65
2017-12-27T01:21:30.265Z,6.97
2017-12-27T01:23:58.430Z,7.93
2017-12-27T01:26:26.796Z,7.28
2017-12-27T01:28:54.984Z,7.50
2017-12-27T01:31:23.052Z,7.70
2017-12-27T01:33:51.200Z,8.20
2017-12-27T01:36:19.320Z,8.13
2017-12-27T01:38:47.444Z,8.43
2017-12-27T01:41:16.121Z,7.93
2017-12-27T01:43:44.248Z,9.10
2017-12-27T01:46:12.419Z,9.18
2017-12-27T01:48:40.520Z,7.68
2017-12-27T01:51:08.792Z,10.90
2017-12-27T01:53:36.908Z,8.55
2017-12-27T01:56:05.037Z,9.05
2017-12-27T01:58:33.149Z,9.52
2017-12-27T02:01:01.282Z,9.55
2017-12-27T02:03:29.412Z,9.20
2017-12-27T02:05:58.379Z,10.55
2017-12-27T02:08:26.540Z,8.20
2017-12-27T02:10:54.693Z,9.65
2017-12-27T02:13:22.854Z,9.68
2017-12-27T02:15:50.964Z,12.40
2017-12-27T02:18:19.099Z,10.48
2017-12-27T02:20:47.228Z,9.35
2017-12-27T02:23:15.358Z,9.15
2017-12-27T02:25:43.483Z,7.70
2017-12-27T02:28:12.367Z,8.10
2017-12-27T02:30:41.390Z,8.80
2017-12-27T02:33:09.514Z,8.55
2017-12-27T02:35:37.633Z,8.27
2017-12-27T02:38:05.785Z,7.95
2017-12-27T02:40:33.920Z,11.73
2017-12-27T02:43:02.066Z,9.38
2017-12-27T02:45:30.213Z,8.95
2017-12-27T02:47:58.350Z,9.07
2017-12-27T02:50:26.550Z,8.88
2017-12-27T02:52:54.737Z,9.82
2017-12-27T02:55:22.922Z,8.80
2017-12-27T02:57:51.062Z,9.20
2017-12-27T03:00:19.936Z,8.10
2017-12-27T03:02:48.850Z,7.80
2017-12-27T03:05:16.996Z,7.70
2017-12-27T03:07:45.114Z,8.55
2017-12-27T03:10:13.325Z,7.55
2017-12-27T03:12:41.867Z,7.28
2017-12-27T03:15:10.241Z,7.00
2017-12-27T03:17:38.428Z,6.03
2017-12-27T03:20:06.666Z,6.28
2017-12-27T03:22:35.889Z,6.45
2017-12-27T03:25:04.344Z,4.95
2017-12-27T03:27:33.561Z,5.15
2017-12-27T03:30:01.671Z,5.53
2017-12-27T03:32:29.792Z,4.90
2017-12-27T03:34:57.911Z,4.93
2017-12-27T03:37:26.088Z,4.95
2017-12-27T03:39:54.230Z,4.97
2017-12-27T03:42:23.690Z,7.82
2017-12-27T03:44:52.603Z,5.05
2017-12-27T03:47:20.737Z,7.35
2017-12-27T03:49:48.857Z,5.43
2017-12-27T03:52:17.002Z,6.43
2017-12-27T03:54:45.398Z,5.10
2017-12-27T03:57:13.776Z,4.53
2017-12-27T03:59:41.974Z,4.68
2017-12-27T04:02:10.152Z,4.70
2017-12-27T04:04:38.914Z,4.85
2017-12-27T04:07:07.231Z,4.43
2017-12-27T04:09:44.607Z,4.95
2017-12-27T04:12:14.193Z,5.20
2017-12-27T04:14:42.516Z,4.20
2017-12-27T04:17:11.417Z,4.72
2017-12-27T04:19:39.674Z,5.12
2017-12-27T04:22:07.840Z,5.50
2017-12-27T04:24:36.130Z,4.40
2017-12-27T04:27:04.439Z,4.45
2017-12-27T04:29:32.709Z,5.57
2017-12-27T04:32:00.956Z,4.95
2017-12-27T04:34:29.200Z,4.30
2017-12-27T04:36:57.506Z,5.18
2017-12-27T04:39:25.915Z,6.12
2017-12-27T04:41:55.147Z,5.20
2017-12-27T04:44:28.242Z,5.47
2017-12-27T04:46:56.486Z,6.10
2017-12-27T04:49:26.147Z,6.20
2017-12-27T04:51:54.442Z,5.00
2017-12-27T04:54:22.708Z,5.78
2017-12-27T04:56:51.603Z,4.80
2017-12-27T04:59:20.673Z,4.40
2017-12-27T05:01:49.618Z,4.57
2017-12-27T05:04:17.790Z,4.72
2017-12-27T05:06:46.026Z,4.87
2017-12-27T05:09:15.006Z,4.37
2017-12-27T05:11:43.384Z,4.50
2017-12-27T05:14:12.102Z,3.92
2017-12-27T05:16:40.416Z,5.00
2017-12-27T05:19:08.898Z,4.65
2017-12-27T05:21:37.418Z,5.28
2017-12-27T05:24:06.568Z,4.47
2017-12-27T05:26:35.995Z,5.25
2017-12-27T05:29:04.143Z,5.62
2017-12-27T05:31:32.472Z,5.53
2017-12-27T05:34:01.553Z,5.40
2017-12-27T05:36:29.736Z,6.00
2017-12-27T05:38:57.864Z,5.35
2017-12-27T05:41:25.967Z,5.28
2017-12-27T05:43:54.087Z,5.85
2017-12-27T05:46:22.201Z,5.10
2017-12-27T05:48:51.088Z,5.15
2017-12-27T05:51:19.980Z,5.25
2017-12-27T05:53:48.868Z,4.97
2017-12-27T05:56:17.740Z,4.57
2017-12-27T05:58:46.632Z,4.47
2017-12-27T06:01:15.611Z,5.22
2017-12-27T06:03:43.760Z,5.50
2017-12-27T06:06:11.875Z,4.60
2017-12-27T06:08:40.057Z,5.68
2017-12-27T06:11:08.937Z,6.18
2017-12-27T06:13:37.832Z,6.25
2017-12-27T06:16:06.708Z,6.70
2017-12-27T06:18:35.608Z,6.22
2017-12-27T06:21:04.565Z,6.57
2017-12-27T06:23:32.678Z,6.40
2017-12-27T06:26:01.585Z,6.75
2017-12-27T06:28:29.696Z,6.35
2017-12-27T06:30:57.845Z,6.40
2017-12-27T06:33:25.955Z,6.50
2017-12-27T06:35:54.101Z,5.70
2017-12-27T06:38:22.208Z,8.57
2017-12-27T06:40:51.097Z,7.60
2017-12-27T06:43:19.213Z,10.00
2017-12-27T06:45:47.464Z,7.40
2017-12-27T06:48:16.643Z,9.77
2017-12-27T06:50:44.879Z,7.35
2017-12-27T06:53:13.022Z,6.60
2017-12-27T06:55:41.300Z,8.35
2017-12-27T06:58:09.430Z,6.90
2017-12-27T07:00:37.619Z,7.28
2017-12-27T07:03:06.025Z,7.90
2017-12-27T07:05:34.166Z,8.00
2017-12-27T07:08:02.569Z,7.60
2017-12-27T07:10:31.026Z,8.43
2017-12-27T07:12:59.259Z,8.32
2017-12-27T07:15:27.566Z,9.20
2017-12-27T07:17:55.954Z,7.85
2017-12-27T07:20:24.164Z,7.03
2017-12-27T07:22:52.368Z,6.72
2017-12-27T07:25:20.718Z,6.95
2017-12-27T07:27:49.070Z,6.60
2017-12-27T07:30:17.335Z,6.30
2017-12-27T07:32:45.686Z,6.70
2017-12-27T07:35:14.713Z,7.12
2017-12-27T07:37:42.956Z,6.68
2017-12-27T07:40:11.528Z,7.25
2017-12-27T07:42:39.811Z,6.82
2017-12-27T07:45:08.086Z,6.30
2017-12-27T07:47:36.332Z,6.28
2017-12-27T07:50:05.386Z,6.87
2017-12-27T07:52:33.568Z,7.45
2017-12-27T07:55:01.696Z,7.50
2017-12-27T07:57:30.600Z,6.78
2017-12-27T07:59:58.709Z,6.57
2017-12-27T08:02:26.844Z,5.53
2017-12-27T08:04:54.951Z,7.43
2017-12-27T08:07:23.085Z,6.18
2017-12-27T08:09:51.245Z,5.50
2017-12-27T08:12:19.446Z,8.02
2017-12-27T08:14:47.587Z,6.03
2017-12-27T08:17:15.824Z,7.55
2017-12-27T08:19:43.969Z,6.82
2017-12-27T08:22:12.384Z,8.60
2017-12-27T08:24:40.533Z,6.37
2017-12-27T08:27:08.713Z,6.80
2017-12-27T08:29:36.849Z,7.57
2017-12-27T08:32:05.029Z,7.35
2017-12-27T08:34:33.342Z,7.07
2017-12-27T08:37:01.500Z,8.55
2017-12-27T08:39:29.697Z,7.15
2017-12-27T08:41:57.881Z,7.15
2017-12-27T08:44:26.091Z,7.53
2017-12-27T08:46:54.263Z,6.65
2017-12-27T08:49:22.502Z,7.37
2017-12-27T08:51:50.949Z,7.93
2017-12-27T08:54:19.110Z,7.80
2017-12-27T08:56:47.327Z,7.15
2017-12-27T08:59:16.284Z,6.82
2017-12-27T09:01:44.454Z,6.40
2017-12-27T09:04:12.664Z,6.75
2017-12-27T09:06:40.931Z,8.63
2017-12-27T09:09:09.905Z,6.35
2017-12-27T09:11:38.021Z,5.93
2017-12-27T09:14:07.376Z,6.90
2017-12-27T09:16:35.848Z,6.87
2017-12-27T09:19:04.832Z,6.32
2017-12-27T09:21:33.257Z,5.70
2017-12-27T09:24:01.537Z,7.82
2017-12-27T09:26:30.025Z,8.55
2017-12-27T09:28:58.235Z,7.22
2017-12-27T09:31:27.508Z,6.60
2017-12-27T09:33:55.644Z,7.22
2017-12-27T09:36:24.059Z,7.87
2017-12-27T09:38:53.401Z,7.30
2017-12-27T09:41:21.594Z,7.53
2017-12-27T09:43:49.831Z,8.10
2017-12-27T09:46:17.980Z,8.73
2017-12-27T09:48:46.321Z,8.75
2017-12-27T09:51:15.212Z,9.20
2017-12-27T09:53:43.418Z,7.77
2017-12-27T09:56:11.529Z,8.95
2017-12-27T09:58:39.748Z,8.30
2017-12-27T10:01:07.974Z,9.63
2017-12-27T10:03:36.678Z,7.53
2017-12-27T10:06:04.854Z,8.00
2017-12-27T10:08:32.984Z,9.30
2017-12-27T10:11:01.121Z,7.32
2017-12-27T10:13:29.236Z,6.97
2017-12-27T10:15:57.375Z,8.15
2017-12-27T10:18:25.488Z,9.25
2017-12-27T10:20:53.616Z,7.83
2017-12-27T10:23:21.751Z,6.63
2017-12-27T10:25:50.644Z,7.90
2017-12-27T10:28:19.520Z,7.70
2017-12-27T10:30:47.664Z,19.23
2017-12-27T10:33:15.792Z,12.10
2017-12-27T10:35:43.926Z,9.37
2017-12-27T10:38:12.041Z,8.43
2017-12-27T10:40:40.171Z,7.73
2017-12-27T10:43:08.280Z,8.57
2017-12-27T10:45:36.404Z,9.70
2017-12-27T10:48:04.516Z,8.50
2017-12-27T10:50:32.647Z,8.30
2017-12-27T10:53:00.814Z,9.47
2017-12-27T10:55:28.947Z,7.97
2017-12-27T10:57:57.076Z,10.60
2017-12-27T11:00:25.208Z,10.53
2017-12-27T11:02:53.340Z,9.07
2017-12-27T11:05:21.480Z,8.23
2017-12-27T11:07:49.609Z,7.53
2017-12-27T11:10:17.756Z,8.00
2017-12-27T11:12:45.915Z,7.20
2017-12-27T11:15:14.885Z,7.63
2017-12-27T11:17:43.006Z,7.17
2017-12-27T11:20:11.165Z,7.70
2017-12-27T11:22:39.292Z,7.60
2017-12-27T11:25:07.453Z,6.90
2017-12-27T11:27:35.566Z,7.87
2017-12-27T11:30:04.484Z,7.17
2017-12-27T11:32:32.575Z,8.47
2017-12-27T11:35:00.721Z,8.20
2017-12-27T11:37:28.832Z,9.30
2017-12-27T11:39:56.969Z,7.70
2017-12-27T11:42:25.105Z,9.17
2017-12-27T11:44:54.046Z,6.97
2017-12-27T11:47:22.154Z,7.30
2017-12-27T11:49:50.243Z,7.53
2017-12-27T11:52:18.428Z,7.73
2017-12-27T11:54:46.551Z,7.77
2017-12-27T11:57:14.668Z,7.17
2017-12-27T11:59:42.783Z,7.03
2017-12-27T12:02:11.105Z,6.77
2017-12-27T12:04:39.213Z,5.63
2017-12-27T12:07:07.394Z,7.67
2017-12-27T12:09:35.532Z,6.10
2017-12-27T12:12:03.665Z,6.90
2017-12-27T12:14:31.788Z,7.10
2017-12-27T12:16:59.901Z,7.73
2017-12-27T12:19:28.013Z,6.37
2017-12-27T12:21:56.165Z,6.73
2017-12-27T12:24:24.280Z,7.73
2017-12-27T12:26:52.413Z,8.27
2017-12-27T12:29:20.523Z,6.83
2017-12-27T12:31:48.655Z,7.00
2017-12-27T12:34:16.784Z,7.23
2017-12-27T12:36:44.919Z,8.60
2017-12-27T12:39:13.587Z,8.60
2017-12-27T12:41:41.712Z,8.07
2017-12-27T12:44:09.848Z,8.33
2017-12-27T12:46:37.968Z,9.13
2017-12-27T12:49:06.121Z,10.23
2017-12-27T12:51:34.228Z,8.50
2017-12-27T12:54:03.104Z,8.97
2017-12-27T12:56:31.998Z,9.23
2017-12-27T12:59:00.909Z,10.20
2017-12-27T13:01:29.779Z,9.53
2017-12-27T13:03:58.730Z,10.77
2017-12-27T13:06:26.840Z,9.57
2017-12-27T13:08:54.990Z,8.63
2017-12-27T13:11:23.144Z,8.80
2017-12-27T13:13:51.265Z,9.20
2017-12-27T13:16:20.169Z,8.50
2017-12-27T13:18:48.406Z,7.50
2017-12-27T13:21:18.032Z,9.97
2017-12-27T13:23:46.144Z,8.50
2017-12-27T13:26:14.297Z,9.37
2017-12-27T13:28:42.470Z,9.50
2017-12-27T13:31:10.624Z,10.77
2017-12-27T13:33:39.499Z,9.13
2017-12-27T13:36:08.469Z,9.33
2017-12-27T13:38:36.584Z,9.43
2017-12-27T13:41:04.714Z,8.97
2017-12-27T13:43:32.828Z,8.33
2017-12-27T13:46:00.974Z,8.60
2017-12-27T13:48:29.849Z,8.07
2017-12-27T13:50:57.987Z,8.50
2017-12-27T13:53:26.112Z,11.03
2017-12-27T13:55:55.249Z,10.90
2017-12-27T13:58:23.389Z,16.50
2017-12-27T14:00:51.554Z,12.60
2017-12-27T14:03:19.679Z,11.13
2017-12-27T14:05:47.805Z,12.40
2017-12-27T14:08:15.989Z,12.90
2017-12-27T14:10:44.151Z,8.90
2017-12-27T14:13:12.320Z,8.80
2017-12-27T14:15:40.482Z,18.40
2017-12-27T14:18:08.648Z,20.73
2017-12-27T14:20:36.813Z,15.30
2017-12-27T14:23:05.737Z,11.97
2017-12-27T14:25:33.860Z,13.60
2017-12-27T14:28:06.818Z,12.07
2017-12-27T14:30:38.017Z,11.77
2017-12-27T14:33:06.145Z,9.80
2017-12-27T14:35:34.282Z,10.93
2017-12-27T14:38:02.423Z,11.00
2017-12-27T14:40:31.308Z,9.20
2017-12-27T14:43:00.221Z,10.20
2017-12-27T14:45:29.084Z,8.43
2017-12-27T14:47:57.217Z,9.00
2017-12-27T14:50:25.328Z,8.97
2017-12-27T14:52:54.243Z,11.27
2017-12-27T14:55:22.380Z,11.70
2017-12-27T14:57:50.561Z,11.17
2017-12-27T15:00:19.460Z,10.10
2017-12-27T15:02:48.440Z,10.40
2017-12-27T15:05:16.572Z,9.57
2017-12-27T15:07:44.787Z,11.10
2017-12-27T15:10:13.688Z,10.50
2017-12-27T15:12:41.846Z,10.23
2017-12-27T15:15:09.999Z,8.57
2017-12-27T15:17:38.084Z,11.10
2017-12-27T15:20:06.695Z,11.83
2017-12-27T15:22:34.823Z,12.73
2017-12-27T15:25:02.967Z,14.97
2017-12-27T15:27:31.090Z,16.10
2017-12-27T15:29:59.995Z,18.53
2017-12-27T15:32:28.120Z,30.03
2017-12-27T15:34:56.252Z,20.80
2017-12-27T15:37:24.377Z,14.63
2017-12-27T15:39:53.333Z,11.40
2017-12-27T15:42:21.465Z,18.08
2017-12-27T15:44:49.600Z,15.50
2017-12-27T15:47:17.723Z,12.27
2017-12-27T15:49:45.864Z,13.97
2017-12-27T15:52:14.769Z,12.80
2017-12-27T15:54:43.660Z,13.63
2017-12-27T15:57:11.842Z,13.33
2017-12-27T15:59:39.976Z,12.50
2017-12-27T16:02:08.919Z,20.43
2017-12-27T16:04:37.434Z,21.90
2017-12-27T16:07:05.557Z,17.85
2017-12-27T16:09:34.109Z,15.10
2017-12-27T16:12:02.245Z,16.80
2017-12-27T16:14:30.376Z,16.40
2017-12-27T16:16:58.529Z,12.93
2017-12-27T16:19:27.442Z,22.00
2017-12-27T16:21:55.591Z,18.27
2017-12-27T16:24:23.736Z,16.48
2017-12-27T16:26:51.887Z,19.50
2017-12-27T16:29:20.038Z,17.10
2017-12-27T16:31:48.297Z,22.23
2017-12-27T16:34:16.449Z,18.17
2017-12-27T16:36:45.398Z,17.80
2017-12-27T16:39:13.585Z,18.10
2017-12-27T16:41:41.730Z,16.70
2017-12-27T16:44:09.985Z,17.20
2017-12-27T16:46:38.181Z,17.60
2017-12-27T16:49:06.304Z,21.10
2017-12-27T16:51:35.682Z,18.37
2017-12-27T16:54:04.034Z,19.10
2017-12-27T16:56:32.827Z,17.57
2017-12-27T16:59:01.063Z,18.17
2017-12-27T17:01:29.343Z,17.00
2017-12-27T17:03:57.479Z,23.17
2017-12-27T17:06:25.598Z,26.73
2017-12-27T17:08:53.766Z,20.53
2017-12-27T17:11:23.837Z,21.33
2017-12-27T17:13:52.789Z,22.47
2017-12-27T17:16:21.047Z,25.00
2017-12-27T17:18:49.260Z,24.02
2017-12-27T17:21:18.185Z,24.98
2017-12-27T17:23:46.447Z,25.73
2017-12-27T17:26:14.686Z,30.02
2017-12-27T17:28:43.642Z,22.33
2017-12-27T17:31:11.822Z,22.50
2017-12-27T17:33:39.984Z,22.00
2017-12-27T17:36:08.175Z,32.63
2017-12-27T17:38:38.175Z,34.15
2017-12-27T17:41:06.522Z,27.75
2017-12-27T17:43:34.873Z,22.48
2017-12-27T17:46:03.070Z,20.27
2017-12-27T17:48:31.952Z,21.62
2017-12-27T17:51:00.077Z,21.95
2017-12-27T17:53:28.264Z,22.52
2017-12-27T17:55:58.860Z,20.50
2017-12-27T17:58:27.025Z,20.88
2017-12-27T18:00:55.283Z,23.62
2017-12-27T18:03:24.169Z,22.05
2017-12-27T18:05:52.456Z,27.13
2017-12-27T18:08:20.766Z,23.73
2017-12-27T18:10:48.917Z,23.85
2017-12-27T18:13:17.092Z,27.13
2017-12-27T18:15:45.324Z,22.30
2017-12-27T18:18:14.320Z,22.73
2017-12-27T18:20:43.242Z,25.58
2017-12-27T18:23:11.437Z,25.75
2017-12-27T18:25:39.604Z,23.92
2017-12-27T18:28:07.763Z,23.50
2017-12-27T18:30:35.921Z,25.00
2017-12-27T18:33:04.213Z,26.95
2017-12-27T18:35:32.393Z,26.25
2017-12-27T18:38:00.531Z,25.37
2017-12-27T18:40:28.697Z,30.80
2017-12-27T18:42:57.623Z,30.05
2017-12-27T18:45:25.805Z,29.35
2017-12-27T18:47:53.954Z,29.15
2017-12-27T18:50:22.134Z,32.78
2017-12-27T18:52:50.361Z,30.77
2017-12-27T18:55:18.521Z,25.90
2017-12-27T18:57:46.816Z,30.85
2017-12-27T19:00:15.003Z,36.78
2017-12-27T19:02:43.168Z,28.83
2017-12-27T19:05:12.127Z,32.42
2017-12-27T19:07:40.300Z,32.10
2017-12-27T19:10:08.443Z,41.50
2017-12-27T19:12:36.625Z,27.23
2017-12-27T19:15:04.803Z,25.65
2017-12-27T19:17:33.016Z,30.58
2017-12-27T19:20:01.943Z,30.45
2017-12-27T19:22:30.144Z,26.62
2017-12-27T19:24:58.295Z,34.45
2017-12-27T19:27:26.464Z,33.00
2017-12-27T19:29:54.789Z,33.40
2017-12-27T19:32:24.038Z,35.63
2017-12-27T19:34:52.224Z,30.92
2017-12-27T19:37:20.383Z,33.50
2017-12-27T19:39:48.556Z,27.23
2017-12-27T19:42:16.739Z,24.23
2017-12-27T19:44:44.886Z,28.55
2017-12-27T19:47:13.091Z,30.77
2017-12-27T19:49:46.208Z,31.35
2017-12-27T19:52:16.865Z,36.50
2017-12-27T19:54:46.118Z,44.10
2017-12-27T19:57:14.328Z,33.60
2017-12-27T19:59:43.791Z,39.33
2017-12-27T20:02:13.232Z,56.47
2017-12-27T20:04:46.319Z,38.28
2017-12-27T20:07:15.806Z,35.60
2017-12-27T20:09:45.763Z,31.98
2017-12-27T20:12:14.633Z,28.60
2017-12-27T20:14:43.783Z,28.30
2017-12-27T20:17:13.492Z,25.20
2017-12-27T20:19:43.465Z,20.70
2017-12-27T20:22:11.935Z,26.45
2017-12-27T20:24:41.456Z,20.20
2017-12-27T20:27:10.813Z,21.60
2017-12-27T20:29:41.830Z,23.05
2017-12-27T20:32:10.896Z,21.42
2017-12-27T20:34:39.688Z,20.65
2017-12-27T20:37:09.652Z,24.00
2017-12-27T20:39:38.472Z,24.92
2017-12-27T20:42:08.464Z,23.83
2017-12-27T20:44:37.397Z,24.52
2017-12-27T20:47:07.809Z,21.03
2017-12-27T20:49:36.399Z,21.73
2017-12-27T20:52:05.500Z,17.50
2017-12-27T20:54:34.900Z,16.83
2017-12-27T20:57:03.796Z,18.37
2017-12-27T20:59:33.790Z,14.73
2017-12-27T21:02:06.277Z,16.70
2017-12-27T21:04:34.747Z,16.60
2017-12-27T21:07:04.663Z,18.20
2017-12-27T21:09:33.899Z,16.90
2017-12-27T21:12:03.178Z,24.17
2017-12-27T21:14:31.836Z,20.00
2017-12-27T21:17:01.403Z,22.95
2017-12-27T21:19:30.400Z,16.77
2017-12-27T21:22:00.129Z,16.48
2017-12-27T21:24:28.786Z,21.12
2017-12-27T21:26:56.981Z,18.67
2017-12-27T21:29:25.197Z,19.58
2017-12-27T21:31:53.391Z,24.33
2017-12-27T21:34:22.939Z,20.67
2017-12-27T21:36:51.105Z,17.85
2017-12-27T21:39:19.270Z,18.85
2017-12-27T21:41:47.432Z,16.25
2017-12-27T21:44:16.375Z,16.08
2017-12-27T21:46:44.542Z,19.15
2017-12-27T21:49:18.364Z,19.62
2017-12-27T21:51:46.531Z,22.37
2017-12-27T21:54:14.716Z,21.08
2017-12-27T21:56:43.664Z,17.70
2017-12-27T21:59:17.496Z,18.85
2017-12-27T22:01:45.736Z,24.20
2017-12-27T22:04:13.919Z,21.27
2017-12-27T22:06:42.146Z,22.23
2017-12-27T22:09:11.129Z,18.95
2017-12-27T22:11:40.096Z,23.60
2017-12-27T22:14:09.097Z,20.05
2017-12-27T22:16:37.252Z,19.80
2017-12-27T22:19:05.426Z,26.37
2017-12-27T22:21:33.602Z,19.83
2017-12-27T22:24:03.680Z,18.52
2017-12-27T22:26:31.858Z,19.33
2017-12-27T22:29:00.104Z,20.27
2017-12-27T22:31:28.412Z,23.17
2017-12-27T22:33:56.772Z,22.52
2017-12-27T22:36:25.000Z,23.90
2017-12-27T22:38:53.271Z,19.85
2017-12-27T22:41:21.442Z,24.67
2017-12-27T22:43:49.610Z,25.90
2017-12-27T22:46:17.818Z,22.05
2017-12-27T22:48:46.742Z,24.60
2017-12-27T22:51:14.915Z,24.70
2017-12-27T22:53:43.103Z,21.37
2017-12-27T22:56:11.292Z,24.30
2017-12-27T22:58:40.653Z,24.48
2017-12-27T23:01:08.916Z,20.05
2017-12-27T23:03:37.062Z,22.20
2017-12-27T23:06:06.027Z,23.35
2017-12-27T23:08:34.206Z,28.40
2017-12-27T23:11:02.403Z,22.62
2017-12-27T23:13:31.343Z,24.05
2017-12-27T23:15:59.524Z,24.45
2017-12-27T23:18:27.687Z,20.55
2017-12-27T23:20:55.873Z,20.20
2017-12-27T23:23:24.048Z,19.83
2017-12-27T23:25:52.227Z,16.80
2017-12-27T23:28:20.586Z,19.62
2017-12-27T23:30:48.792Z,17.48
2017-12-27T23:33:17.742Z,19.85
2017-12-27T23:35:46.119Z,18.58
2017-12-27T23:38:14.276Z,20.42
2017-12-27T23:40:42.446Z,19.58
2017-12-27T23:43:10.641Z,20.67
2017-12-27T23:45:38.842Z,19.17
2017-12-27T23:48:07.001Z,19.25
2017-12-27T23:50:36.732Z,19.98
2017-12-27T23:53:04.915Z,23.77
2017-12-27T23:55:33.163Z,21.73
2017-12-27T23:58:01.308Z,17.83
